createdAt,value
2016-09-06T00:00:38.423Z,0
2016-09-06T00:01:38.377Z,0
2016-09-06T00:02:37.616Z,0
2016-09-06T00:03:37.017Z,0
2016-09-06T00:04:37.011Z,0
2016-09-06T00:05:37.000Z,0
2016-09-06T00:06:37.003Z,0
2016-09-06T00:07:37.003Z,0
2016-09-06T00:08:36.992Z,0
2016-09-06T00:09:36.977Z,0
2016-09-06T00:10:36.979Z,0
2016-09-06T00:11:36.967Z,0
2016-09-06T00:12:36.983Z,0
2016-09-06T00:13:36.978Z,0
2016-09-06T00:14:36.965Z,0
2016-09-06T00:15:36.957Z,0
2016-09-06T00:16:36.962Z,0
2016-09-06T00:17:37.234Z,0
2016-09-06T00:18:36.952Z,0
2016-09-06T00:19:36.930Z,0
2016-09-06T00:20:36.937Z,0
2016-09-06T00:21:36.926Z,0
2016-09-06T00:22:36.941Z,0
2016-09-06T00:23:36.917Z,0
2016-09-06T00:24:36.929Z,0
2016-09-06T00:25:36.898Z,0
2016-09-06T00:26:36.905Z,0
2016-09-06T00:27:36.903Z,0
2016-09-06T00:28:36.905Z,0
2016-09-06T00:29:36.893Z,0
2016-09-06T00:30:36.883Z,0
2016-09-06T00:31:36.890Z,0
2016-09-06T00:32:36.869Z,0
2016-09-06T00:33:36.882Z,0
2016-09-06T00:34:36.867Z,0
2016-09-06T00:35:36.874Z,0
2016-09-06T00:36:36.867Z,0
2016-09-06T00:37:36.861Z,0
2016-09-06T00:38:36.847Z,0
2016-09-06T00:39:36.851Z,0
2016-09-06T00:40:36.835Z,0
2016-09-06T00:41:36.849Z,0
2016-09-06T00:42:36.817Z,0
2016-09-06T00:43:37.468Z,0
2016-09-06T00:44:37.410Z,0
2016-09-06T00:45:39.295Z,0
2016-09-06T00:46:37.598Z,0
2016-09-06T00:47:37.926Z,0
2016-09-06T00:48:37.792Z,0
2016-09-06T00:49:36.804Z,0
2016-09-06T00:50:36.780Z,0
2016-09-06T00:51:36.798Z,0
2016-09-06T00:52:39.577Z,0
2016-09-06T00:53:39.362Z,0
2016-09-06T00:54:37.764Z,0
2016-09-06T00:55:36.760Z,0
2016-09-06T00:56:36.849Z,0
2016-09-06T00:57:37.075Z,0
2016-09-06T00:58:36.767Z,0
2016-09-06T00:59:36.836Z,0
2016-09-06T01:00:36.742Z,0
2016-09-06T01:01:36.739Z,0
2016-09-06T01:02:36.749Z,0
2016-09-06T01:03:36.731Z,0
2016-09-06T01:04:36.742Z,0
2016-09-06T01:05:36.711Z,0
2016-09-06T01:06:36.732Z,0
2016-09-06T01:07:36.714Z,0
2016-09-06T01:08:36.712Z,0
2016-09-06T01:09:51.613Z,0
2016-09-06T01:10:37.244Z,0
2016-09-06T01:11:51.799Z,0
2016-09-06T01:12:37.042Z,0
2016-09-06T01:13:37.081Z,0
2016-09-06T01:14:51.691Z,0
2016-09-06T01:15:37.031Z,0
2016-09-06T01:16:36.664Z,0
2016-09-06T01:17:36.657Z,0
2016-09-06T01:18:37.346Z,0
2016-09-06T01:19:37.906Z,0
2016-09-06T01:20:36.805Z,0
2016-09-06T01:21:36.653Z,0
2016-09-06T01:22:36.676Z,0
2016-09-06T01:23:36.900Z,0
2016-09-06T01:24:36.610Z,0
2016-09-06T01:25:36.622Z,0
2016-09-06T01:26:36.606Z,0
2016-09-06T01:27:36.613Z,0
2016-09-06T01:28:36.612Z,0
2016-09-06T01:29:36.599Z,0
2016-09-06T01:30:36.589Z,0
2016-09-06T01:31:36.589Z,0
2016-09-06T01:32:36.588Z,0
2016-09-06T01:33:36.580Z,0
2016-09-06T01:34:36.570Z,0
2016-09-06T01:35:36.880Z,0
2016-09-06T01:36:36.561Z,0
2016-09-06T01:37:36.564Z,0
2016-09-06T01:38:36.544Z,0
2016-09-06T01:39:36.564Z,0
2016-09-06T01:40:36.541Z,0
2016-09-06T01:41:36.539Z,0
2016-09-06T01:42:36.526Z,0
2016-09-06T01:43:36.535Z,0
2016-09-06T01:44:36.541Z,0
2016-09-06T01:45:36.519Z,0
2016-09-06T01:46:36.509Z,0
2016-09-06T01:47:36.506Z,0
2016-09-06T01:48:36.504Z,0
2016-09-06T01:49:36.850Z,0
2016-09-06T01:50:36.482Z,0
2016-09-06T01:51:36.503Z,0
2016-09-06T01:52:36.490Z,0
2016-09-06T01:53:36.488Z,0
2016-09-06T01:54:36.476Z,0
2016-09-06T01:55:36.472Z,0
2016-09-06T01:56:36.463Z,0
2016-09-06T01:57:36.763Z,0
2016-09-06T01:58:36.450Z,0
2016-09-06T01:59:36.457Z,0
2016-09-06T02:00:36.442Z,0
2016-09-06T02:02:36.443Z,0
2016-09-06T02:03:38.387Z,0
2016-09-06T02:04:37.029Z,0
2016-09-06T02:05:37.527Z,0
2016-09-06T02:06:36.407Z,0
2016-09-06T02:07:36.884Z,0
2016-09-06T02:08:36.391Z,0
2016-09-06T02:09:36.401Z,0
2016-09-06T02:10:39.789Z,0
2016-09-06T02:11:38.029Z,0
2016-09-06T02:12:36.867Z,0
2016-09-06T02:13:36.371Z,0
2016-09-06T02:14:36.637Z,0
2016-09-06T02:15:36.924Z,0
2016-09-06T02:16:36.354Z,0
2016-09-06T02:17:36.343Z,0
2016-09-06T02:18:36.339Z,0
2016-09-06T02:19:36.324Z,0
2016-09-06T02:20:36.334Z,0
2016-09-06T02:21:36.314Z,0
2016-09-06T02:22:36.330Z,0
2016-09-06T02:23:36.303Z,0
2016-09-06T02:24:36.317Z,0
2016-09-06T02:25:36.311Z,0
2016-09-06T02:26:36.300Z,0
2016-09-06T02:27:37.109Z,0
2016-09-06T02:28:37.530Z,0
2016-09-06T02:29:51.739Z,0
2016-09-06T02:30:37.334Z,0
2016-09-06T02:31:36.268Z,0
2016-09-06T02:32:36.265Z,0
2016-09-06T02:33:36.253Z,0
2016-09-06T02:34:36.464Z,0
2016-09-06T02:35:36.246Z,0
2016-09-06T02:36:37.086Z,0
2016-09-06T02:37:37.635Z,0
2016-09-06T02:38:36.236Z,0
2016-09-06T02:39:51.137Z,0
2016-09-06T02:40:36.272Z,0
2016-09-06T02:41:36.721Z,0
2016-09-06T02:42:36.339Z,0
2016-09-06T02:43:36.225Z,0
2016-09-06T02:44:36.280Z,0
2016-09-06T02:45:36.201Z,0
2016-09-06T02:46:36.183Z,0
2016-09-06T02:47:36.185Z,0
2016-09-06T02:48:36.162Z,0
2016-09-06T02:49:36.213Z,0
2016-09-06T02:50:36.160Z,0
2016-09-06T02:51:36.168Z,0
2016-09-06T02:52:36.141Z,0
2016-09-06T02:53:36.160Z,0
2016-09-06T02:54:36.142Z,0
2016-09-06T02:55:36.147Z,0
2016-09-06T02:56:36.121Z,0
2016-09-06T02:57:36.128Z,0
2016-09-06T02:58:36.131Z,0
2016-09-06T02:59:36.116Z,0
2016-09-06T03:00:36.100Z,0
2016-09-06T03:01:36.113Z,0
2016-09-06T03:02:36.098Z,0
2016-09-06T03:03:36.097Z,0
2016-09-06T03:04:36.082Z,0
2016-09-06T03:05:36.070Z,0
2016-09-06T03:06:36.067Z,0
2016-09-06T03:07:36.074Z,0
2016-09-06T03:08:36.085Z,0
2016-09-06T03:09:36.052Z,0
2016-09-06T03:10:36.051Z,0
2016-09-06T03:11:36.044Z,0
2016-09-06T03:12:36.052Z,0
2016-09-06T03:13:36.026Z,0
2016-09-06T03:14:36.330Z,0
2016-09-06T03:15:36.021Z,0
2016-09-06T03:16:36.031Z,0
2016-09-06T03:17:36.010Z,0
2016-09-06T03:18:36.009Z,0
2016-09-06T03:19:38.602Z,0
2016-09-06T03:21:37.478Z,0
2016-09-06T03:22:36.286Z,0
2016-09-06T03:23:37.112Z,0
2016-09-06T03:24:35.984Z,0
2016-09-06T03:25:35.959Z,0
2016-09-06T03:26:35.976Z,0
2016-09-06T03:27:35.948Z,0
2016-09-06T03:28:37.464Z,0
2016-09-06T03:29:38.407Z,0
2016-09-06T03:30:38.758Z,0
2016-09-06T03:31:37.676Z,0
2016-09-06T03:32:35.921Z,0
2016-09-06T03:33:36.229Z,0
2016-09-06T03:34:35.911Z,0
2016-09-06T03:35:35.903Z,0
2016-09-06T03:36:35.903Z,0
2016-09-06T03:37:35.892Z,0
2016-09-06T03:38:35.891Z,0
2016-09-06T03:39:35.874Z,0
2016-09-06T03:40:35.890Z,0
2016-09-06T03:41:35.864Z,4
2016-09-06T03:42:35.874Z,4
2016-09-06T03:43:35.852Z,0
2016-09-06T03:44:35.861Z,0
2016-09-06T03:45:36.706Z,4
2016-09-06T03:46:36.486Z,4
2016-09-06T03:49:35.809Z,4
2016-09-06T03:50:35.817Z,4
2016-09-06T03:51:35.810Z,4
2016-09-06T03:52:35.810Z,4
2016-09-06T03:53:35.795Z,8
2016-09-06T03:54:36.886Z,12
2016-09-06T03:55:36.744Z,12
2016-09-06T03:56:36.034Z,12
2016-09-06T03:57:35.818Z,16
2016-09-06T03:58:35.759Z,16
2016-09-06T03:59:36.555Z,24
2016-09-06T04:00:36.395Z,24
2016-09-06T04:01:35.754Z,28
2016-09-06T04:02:35.743Z,36
2016-09-06T04:03:35.738Z,44
2016-09-06T04:04:35.725Z,48
2016-09-06T04:05:35.733Z,56
2016-09-06T04:06:35.705Z,64
2016-09-06T04:07:35.716Z,76
2016-09-06T04:08:35.703Z,88
2016-09-06T04:09:36.019Z,100
2016-09-06T04:10:35.693Z,116
2016-09-06T04:11:35.685Z,132
2016-09-06T04:12:35.686Z,152
2016-09-06T04:13:35.681Z,172
2016-09-06T04:14:35.667Z,196
2016-09-06T04:15:35.663Z,220
2016-09-06T04:16:35.653Z,244
2016-09-06T04:17:35.660Z,272
2016-09-06T04:18:35.639Z,300
2016-09-06T04:19:35.635Z,328
2016-09-06T04:20:35.629Z,356
2016-09-06T04:21:35.635Z,384
2016-09-06T04:22:35.601Z,424
2016-09-06T04:23:35.606Z,456
2016-09-06T04:24:35.598Z,500
2016-09-06T04:25:35.611Z,540
2016-09-06T04:26:35.621Z,580
2016-09-06T04:27:35.588Z,628
2016-09-06T04:28:35.574Z,676
2016-09-06T04:29:35.565Z,724
2016-09-06T04:30:35.573Z,776
2016-09-06T04:31:35.559Z,824
2016-09-06T04:32:35.573Z,876
2016-09-06T04:33:35.545Z,924
2016-09-06T04:34:35.551Z,976
2016-09-06T04:35:35.541Z,1028
2016-09-06T04:36:35.521Z,1080
2016-09-06T04:37:38.521Z,1140
2016-09-06T04:39:36.406Z,1260
2016-09-06T04:40:35.620Z,1316
2016-09-06T04:41:36.756Z,1376
2016-09-06T04:42:35.501Z,1436
2016-09-06T04:43:35.484Z,1512
2016-09-06T04:44:35.484Z,1572
2016-09-06T04:45:35.473Z,1640
2016-09-06T04:46:36.241Z,1732
2016-09-06T04:47:37.293Z,1904
2016-09-06T04:48:38.053Z,2060
2016-09-06T04:49:37.299Z,2112
2016-09-06T04:50:35.535Z,2224
2016-09-06T04:51:36.290Z,2412
2016-09-06T04:52:36.121Z,2476
2016-09-06T04:53:35.443Z,2452
2016-09-06T04:54:35.416Z,2524
2016-09-06T04:55:35.433Z,2696
2016-09-06T04:56:35.718Z,2992
2016-09-06T04:57:35.418Z,3320
2016-09-06T04:58:35.398Z,3808
2016-09-06T04:59:35.402Z,4340
2016-09-06T05:00:35.398Z,4316
2016-09-06T05:01:35.389Z,4396
2016-09-06T05:02:35.374Z,4408
2016-09-06T05:03:36.724Z,4552
2016-09-06T05:04:35.425Z,4896
2016-09-06T05:05:35.773Z,5532
2016-09-06T05:06:35.410Z,5724
2016-09-06T05:07:35.358Z,5736
2016-09-06T05:08:35.336Z,5816
2016-09-06T05:09:35.352Z,6468
2016-09-06T05:10:35.343Z,6932
2016-09-06T05:11:35.446Z,7144
2016-09-06T05:12:37.029Z,7256
2016-09-06T05:13:35.734Z,8016
2016-09-06T05:14:36.410Z,8900
2016-09-06T05:15:36.199Z,9104
2016-09-06T05:16:35.453Z,9464
2016-09-06T05:17:35.301Z,9204
2016-09-06T05:18:35.303Z,10256
2016-09-06T05:19:35.285Z,9912
2016-09-06T05:20:35.293Z,9348
2016-09-06T05:21:35.285Z,9068
2016-09-06T05:22:35.286Z,10312
2016-09-06T05:23:35.273Z,10408
2016-09-06T05:24:35.290Z,10576
2016-09-06T05:25:35.261Z,11172
2016-09-06T05:26:35.279Z,12340
2016-09-06T05:27:35.258Z,13320
2016-09-06T05:28:35.284Z,13696
2016-09-06T05:29:35.267Z,14144
2016-09-06T05:30:35.248Z,14464
2016-09-06T05:31:35.246Z,15008
2016-09-06T05:32:35.559Z,15648
2016-09-06T05:33:35.252Z,16064
2016-09-06T05:34:35.260Z,11196
2016-09-06T05:35:35.239Z,10828
2016-09-06T05:36:35.276Z,13456
2016-09-06T05:37:35.236Z,15552
2016-09-06T05:38:35.247Z,15616
2016-09-06T05:39:35.242Z,15808
2016-09-06T05:40:35.251Z,15776
2016-09-06T05:41:35.240Z,16800
2016-09-06T05:42:35.241Z,17376
2016-09-06T05:43:35.226Z,17696
2016-09-06T05:44:35.235Z,17792
2016-09-06T05:45:35.247Z,17280
2016-09-06T05:46:35.240Z,16832
2016-09-06T05:47:35.233Z,16576
2016-09-06T05:48:35.234Z,16384
2016-09-06T05:49:35.225Z,15776
2016-09-06T05:50:35.220Z,15808
2016-09-06T05:51:35.247Z,15840
2016-09-06T05:52:35.235Z,15872
2016-09-06T05:53:35.238Z,16928
2016-09-06T05:54:35.245Z,17952
2016-09-06T05:55:36.744Z,18240
2016-09-06T05:56:38.195Z,17056
2016-09-06T05:57:35.799Z,16864
2016-09-06T05:58:35.420Z,17504
2016-09-06T05:59:36.926Z,18880
2016-09-06T06:00:35.256Z,19744
2016-09-06T06:01:35.380Z,18784
2016-09-06T06:02:35.263Z,17632
2016-09-06T06:03:35.265Z,18176
2016-09-06T06:04:35.708Z,17760
2016-09-06T06:05:37.015Z,17568
2016-09-06T06:06:35.264Z,18848
2016-09-06T06:07:35.269Z,19136
2016-09-06T06:08:36.696Z,19296
2016-09-06T06:09:35.286Z,19104
2016-09-06T06:10:35.509Z,18464
2016-09-06T06:11:35.294Z,18496
2016-09-06T06:12:35.296Z,18784
2016-09-06T06:13:35.287Z,18016
2016-09-06T06:14:35.309Z,16256
2016-09-06T06:15:35.306Z,16064
2016-09-06T06:16:35.311Z,18368
2016-09-06T06:17:35.316Z,19808
2016-09-06T06:18:35.320Z,18976
2016-09-06T06:19:35.321Z,19296
2016-09-06T06:20:35.332Z,20544
2016-09-06T06:21:37.097Z,20768
2016-09-06T06:22:36.227Z,16512
2016-09-06T06:23:36.251Z,19040
2016-09-06T06:24:35.852Z,19584
2016-09-06T06:25:35.366Z,20832
2016-09-06T06:26:36.089Z,21216
2016-09-06T06:27:35.373Z,21760
2016-09-06T06:28:35.381Z,20576
2016-09-06T06:29:35.380Z,18720
2016-09-06T06:30:36.099Z,18688
2016-09-06T06:31:35.706Z,18656
2016-09-06T06:32:35.609Z,18912
2016-09-06T06:33:35.409Z,18880
2016-09-06T06:34:36.029Z,17600
2016-09-06T06:35:36.008Z,16480
2016-09-06T06:36:35.444Z,16864
2016-09-06T06:37:35.434Z,17056
2016-09-06T06:38:35.457Z,15488
2016-09-06T06:39:35.459Z,14528
2016-09-06T06:40:35.457Z,13960
2016-09-06T06:41:35.469Z,13672
2016-09-06T06:42:35.466Z,13696
2016-09-06T06:43:35.495Z,13284
2016-09-06T06:44:35.500Z,12992
2016-09-06T06:45:35.506Z,13248
2016-09-06T06:46:35.529Z,13036
2016-09-06T06:47:35.522Z,12840
2016-09-06T06:48:35.533Z,13312
2016-09-06T06:49:35.541Z,14048
2016-09-06T06:50:35.558Z,14940
2016-09-06T06:51:35.544Z,15872
2016-09-06T06:52:35.553Z,20032
2016-09-06T06:53:35.882Z,26016
2016-09-06T06:54:35.574Z,25184
2016-09-06T06:55:35.591Z,22432
2016-09-06T06:56:35.597Z,20448
2016-09-06T06:57:35.610Z,19168
2016-09-06T06:58:35.633Z,19232
2016-09-06T06:59:35.611Z,17472
2016-09-06T07:00:35.631Z,20480
2016-09-06T07:01:35.627Z,17792
2016-09-06T07:02:35.658Z,19584
2016-09-06T07:03:35.649Z,19200
2016-09-06T07:04:35.736Z,20000
2016-09-06T07:05:35.675Z,19808
2016-09-06T07:06:35.694Z,20288
2016-09-06T07:07:35.690Z,20608
2016-09-06T07:08:35.702Z,20736
2016-09-06T07:09:35.711Z,20704
2016-09-06T07:10:35.727Z,20160
2016-09-06T07:11:36.023Z,20128
2016-09-06T07:12:35.748Z,19200
2016-09-06T07:13:36.700Z,17408
2016-09-06T07:14:38.348Z,17952
2016-09-06T07:15:36.705Z,19680
2016-09-06T07:16:36.850Z,20224
2016-09-06T07:17:36.686Z,19936
2016-09-06T07:18:35.782Z,20096
2016-09-06T07:19:35.794Z,20448
2016-09-06T07:20:35.811Z,20800
2016-09-06T07:21:35.823Z,20480
2016-09-06T07:22:36.683Z,19680
2016-09-06T07:23:38.618Z,18528
2016-09-06T07:24:37.086Z,18848
2016-09-06T07:25:37.373Z,20064
2016-09-06T07:26:37.343Z,19808
2016-09-06T07:27:36.100Z,19360
2016-09-06T07:28:36.636Z,19328
2016-09-06T07:29:36.400Z,19328
2016-09-06T07:30:35.903Z,18880
2016-09-06T07:31:35.906Z,18976
2016-09-06T07:32:35.923Z,18976
2016-09-06T07:33:35.935Z,17312
2016-09-06T07:34:35.958Z,15392
2016-09-06T07:35:35.942Z,15136
2016-09-06T07:36:36.263Z,15776
2016-09-06T07:37:35.984Z,15776
2016-09-06T07:38:35.972Z,16416
2016-09-06T07:39:50.911Z,17664
2016-09-06T07:40:37.341Z,17280
2016-09-06T07:41:36.670Z,16992
2016-09-06T07:43:36.230Z,19200
2016-09-06T07:44:36.045Z,19232
2016-09-06T07:45:36.034Z,19200
2016-09-06T07:46:36.048Z,19456
2016-09-06T07:47:36.058Z,19616
2016-09-06T07:48:37.342Z,20192
2016-09-06T07:49:36.924Z,20640
2016-09-06T07:50:36.100Z,20256
2016-09-06T07:51:36.542Z,19296
2016-09-06T07:52:36.373Z,18400
2016-09-06T07:53:36.110Z,17824
2016-09-06T07:54:36.625Z,18208
2016-09-06T07:55:36.577Z,18496
2016-09-06T07:56:36.142Z,18528
2016-09-06T07:57:36.173Z,19168
2016-09-06T07:58:36.148Z,19648
2016-09-06T07:59:36.159Z,20224
2016-09-06T08:00:36.165Z,20000
2016-09-06T08:01:36.199Z,19808
2016-09-06T08:02:36.192Z,19264
2016-09-06T08:03:36.197Z,19360
2016-09-06T08:04:36.231Z,19584
2016-09-06T08:05:36.217Z,19776
2016-09-06T08:06:36.240Z,19872
2016-09-06T08:07:36.233Z,20128
2016-09-06T08:08:36.260Z,20928
2016-09-06T08:09:36.257Z,21344
2016-09-06T08:10:36.271Z,21664
2016-09-06T08:11:36.270Z,21472
2016-09-06T08:12:36.292Z,20768
2016-09-06T08:13:36.297Z,21056
2016-09-06T08:14:36.301Z,20928
2016-09-06T08:15:36.323Z,20800
2016-09-06T08:16:36.311Z,19584
2016-09-06T08:17:36.328Z,12396
2016-09-06T08:18:36.324Z,6820
2016-09-06T08:19:36.351Z,6444
2016-09-06T08:20:36.348Z,6492
2016-09-06T08:21:36.384Z,6684
2016-09-06T08:22:36.361Z,6920
2016-09-06T08:23:36.378Z,7184
2016-09-06T08:24:36.375Z,7468
2016-09-06T08:25:36.397Z,8296
2016-09-06T08:26:36.403Z,7580
2016-09-06T08:27:36.403Z,6844
2016-09-06T08:28:36.402Z,6968
2016-09-06T08:29:36.407Z,6932
2016-09-06T08:30:36.414Z,6876
2016-09-06T08:32:36.465Z,6916
2016-09-06T08:33:38.380Z,7032
2016-09-06T08:34:38.689Z,7272
2016-09-06T08:35:37.693Z,7664
2016-09-06T08:36:36.587Z,8460
2016-09-06T08:37:37.200Z,9844
2016-09-06T08:38:36.434Z,10892
2016-09-06T08:39:36.545Z,11388
2016-09-06T08:40:36.436Z,11652
2016-09-06T08:41:36.924Z,11580
2016-09-06T08:42:39.010Z,11368
2016-09-06T08:43:36.451Z,11920
2016-09-06T08:44:38.357Z,13416
2016-09-06T08:45:37.431Z,13964
2016-09-06T08:46:36.443Z,13648
2016-09-06T08:47:36.479Z,13108
2016-09-06T08:48:36.442Z,12664
2016-09-06T08:49:36.454Z,11432
2016-09-06T08:50:36.706Z,11468
2016-09-06T08:51:36.471Z,11120
2016-09-06T08:52:36.467Z,11044
2016-09-06T08:53:36.457Z,10592
2016-09-06T08:54:36.454Z,9812
2016-09-06T08:55:36.467Z,11164
2016-09-06T08:56:36.455Z,11596
2016-09-06T08:57:36.458Z,12380
2016-09-06T08:58:38.160Z,13412
2016-09-06T08:59:37.322Z,13184
2016-09-06T09:00:36.460Z,13980
2016-09-06T09:01:36.474Z,15032
2016-09-06T09:02:51.876Z,15632
2016-09-06T09:03:36.617Z,15928
2016-09-06T09:04:36.623Z,16084
2016-09-06T09:05:36.462Z,16544
2016-09-06T09:06:36.472Z,17184
2016-09-06T09:07:37.019Z,17760
2016-09-06T09:08:37.482Z,17184
2016-09-06T09:09:51.778Z,15972
2016-09-06T09:10:36.473Z,15428
2016-09-06T09:11:36.462Z,15128
2016-09-06T09:12:37.076Z,14704
2016-09-06T09:13:36.468Z,13940
2016-09-06T09:14:36.478Z,14096
2016-09-06T09:15:36.482Z,14040
2016-09-06T09:16:36.484Z,13032
2016-09-06T09:17:36.464Z,12700
2016-09-06T09:18:36.476Z,12564
2016-09-06T09:19:36.487Z,12652
2016-09-06T09:20:36.493Z,12756
2016-09-06T09:21:36.466Z,12196
2016-09-06T09:22:36.500Z,11680
2016-09-06T09:23:36.483Z,11440
2016-09-06T09:24:36.491Z,11420
2016-09-06T09:25:36.481Z,11536
2016-09-06T09:26:36.490Z,11644
2016-09-06T09:27:36.475Z,12460
2016-09-06T09:28:36.487Z,13800
2016-09-06T09:29:36.483Z,15580
2016-09-06T09:30:36.498Z,17824
2016-09-06T09:31:36.498Z,19424
2016-09-06T09:32:36.799Z,20480
2016-09-06T09:33:36.484Z,20736
2016-09-06T09:34:36.488Z,19840
2016-09-06T09:35:36.492Z,18016
2016-09-06T09:36:36.498Z,16176
2016-09-06T09:37:36.509Z,14780
2016-09-06T09:38:36.486Z,14216
2016-09-06T09:39:36.508Z,14620
2016-09-06T09:40:36.797Z,16128
2016-09-06T09:41:36.509Z,18240
2016-09-06T09:42:36.504Z,19456
2016-09-06T09:43:36.517Z,19776
2016-09-06T09:44:36.513Z,19360
2016-09-06T09:45:36.522Z,18624
2016-09-06T09:46:36.490Z,17760
2016-09-06T09:47:36.511Z,17152
2016-09-06T09:48:36.506Z,16960
2016-09-06T09:49:36.497Z,16512
2016-09-06T09:50:38.218Z,15560
2016-09-06T09:51:38.676Z,14684
2016-09-06T09:52:39.054Z,14556
2016-09-06T09:53:36.539Z,15944
2016-09-06T09:54:37.914Z,18912
2016-09-06T09:55:36.521Z,19680
2016-09-06T09:56:36.515Z,19424
2016-09-06T09:57:36.528Z,19648
2016-09-06T09:58:36.511Z,19136
2016-09-06T09:59:39.628Z,18528
2016-09-06T10:00:38.494Z,18624
2016-09-06T10:01:39.050Z,18496
2016-09-06T10:02:36.543Z,18240
2016-09-06T10:03:36.523Z,18560
2016-09-06T10:04:36.617Z,19072
2016-09-06T10:05:36.985Z,19104
2016-09-06T10:06:36.653Z,18464
2016-09-06T10:07:36.540Z,17888
2016-09-06T10:08:36.548Z,17792
2016-09-06T10:09:36.530Z,18304
2016-09-06T10:10:36.548Z,18720
2016-09-06T10:11:36.544Z,18848
2016-09-06T10:12:36.556Z,18176
2016-09-06T10:13:36.560Z,17664
2016-09-06T10:14:36.554Z,17280
2016-09-06T10:15:36.559Z,16576
2016-09-06T10:16:36.659Z,15916
2016-09-06T10:17:36.555Z,16240
2016-09-06T10:18:36.672Z,17376
2016-09-06T10:19:37.221Z,18432
2016-09-06T10:20:37.039Z,18976
2016-09-06T10:21:36.675Z,18688
2016-09-06T10:22:36.582Z,17632
2016-09-06T10:23:36.573Z,16640
2016-09-06T10:24:36.899Z,15136
2016-09-06T10:25:37.331Z,13140
2016-09-06T10:26:37.096Z,11424
2016-09-06T10:27:37.057Z,11116
2016-09-06T10:28:37.636Z,11144
2016-09-06T10:29:37.430Z,11460
2016-09-06T10:30:36.894Z,11588
2016-09-06T10:31:36.597Z,12816
2016-09-06T10:32:36.915Z,13612
2016-09-06T10:33:36.593Z,14168
2016-09-06T10:34:36.608Z,14820
2016-09-06T10:35:36.596Z,15340
2016-09-06T10:36:36.617Z,15760
2016-09-06T10:38:36.617Z,18272
2016-09-06T10:39:36.620Z,20064
2016-09-06T10:40:36.617Z,20992
2016-09-06T10:41:36.635Z,20768
2016-09-06T10:42:36.628Z,19968
2016-09-06T10:43:36.637Z,18688
2016-09-06T10:44:36.615Z,17088
2016-09-06T10:45:36.628Z,15312
2016-09-06T10:46:36.625Z,13900
2016-09-06T10:47:36.639Z,12528
2016-09-06T10:48:36.645Z,11664
2016-09-06T10:49:36.636Z,10684
2016-09-06T10:50:36.998Z,10392
2016-09-06T10:51:36.638Z,10868
2016-09-06T10:52:36.668Z,11764
2016-09-06T10:53:36.646Z,12564
2016-09-06T10:54:36.664Z,11932
2016-09-06T10:55:36.646Z,11228
2016-09-06T10:56:36.677Z,10516
2016-09-06T10:57:36.650Z,10340
2016-09-06T10:58:36.655Z,10196
2016-09-06T10:59:36.651Z,9484
2016-09-06T11:00:36.670Z,8872
2016-09-06T11:01:36.657Z,8720
2016-09-06T11:02:36.657Z,7988
2016-09-06T11:03:36.652Z,8024
2016-09-06T11:04:36.674Z,8680
2016-09-06T11:05:36.652Z,8932
2016-09-06T11:06:36.672Z,8308
2016-09-06T11:07:36.655Z,7616
2016-09-06T11:09:38.098Z,7216
2016-09-06T11:10:38.715Z,7236
2016-09-06T11:11:38.254Z,6432
2016-09-06T11:12:37.658Z,7000
2016-09-06T11:13:36.668Z,7020
2016-09-06T11:14:36.874Z,6968
2016-09-06T11:15:36.789Z,7176
2016-09-06T11:16:36.677Z,7620
2016-09-06T11:18:38.018Z,8872
2016-09-06T11:19:38.893Z,9020
2016-09-06T11:20:38.524Z,8664
2016-09-06T11:21:38.094Z,8240
2016-09-06T11:22:37.177Z,7600
2016-09-06T11:23:36.691Z,7200
2016-09-06T11:24:36.985Z,7060
2016-09-06T11:25:36.700Z,7052
2016-09-06T11:26:36.657Z,6280
2016-09-06T11:27:36.674Z,6512
2016-09-06T11:28:36.676Z,6416
2016-09-06T11:29:36.680Z,6500
2016-09-06T11:30:36.666Z,6472
2016-09-06T11:31:36.684Z,6552
2016-09-06T11:32:36.669Z,6580
2016-09-06T11:33:36.684Z,6644
2016-09-06T11:34:36.876Z,6960
2016-09-06T11:35:36.847Z,7092
2016-09-06T11:36:38.121Z,6892
2016-09-06T11:37:36.822Z,6956
2016-09-06T11:38:36.864Z,6828
2016-09-06T11:39:36.669Z,7436
2016-09-06T11:40:37.178Z,7712
2016-09-06T11:41:36.677Z,7996
2016-09-06T11:42:36.661Z,8348
2016-09-06T11:43:38.668Z,8424
2016-09-06T11:44:38.630Z,8464
2016-09-06T11:45:37.222Z,8960
2016-09-06T11:47:37.618Z,10444
2016-09-06T11:48:36.687Z,10840
2016-09-06T11:49:36.674Z,10824
2016-09-06T11:50:36.680Z,10308
2016-09-06T11:51:36.668Z,9728
2016-09-06T11:52:36.978Z,8612
2016-09-06T11:53:36.679Z,7600
2016-09-06T11:54:36.679Z,7016
2016-09-06T11:55:36.657Z,6680
2016-09-06T11:56:36.695Z,6744
2016-09-06T11:57:36.673Z,7180
2016-09-06T11:58:36.674Z,7204
2016-09-06T11:59:36.670Z,7416
2016-09-06T12:00:36.682Z,7524
2016-09-06T12:01:36.668Z,7400
2016-09-06T12:02:36.683Z,7176
2016-09-06T12:03:36.666Z,7060
2016-09-06T12:04:36.684Z,7060
2016-09-06T12:05:36.661Z,7040
2016-09-06T12:06:36.685Z,7036
2016-09-06T12:07:36.659Z,6740
2016-09-06T12:08:36.680Z,6740
2016-09-06T12:09:36.677Z,6620
2016-09-06T12:10:36.675Z,6892
2016-09-06T12:11:36.663Z,6884
2016-09-06T12:12:36.667Z,6976
2016-09-06T12:13:36.972Z,7052
2016-09-06T12:14:36.676Z,6952
2016-09-06T12:15:36.681Z,6384
2016-09-06T12:16:36.668Z,6764
2016-09-06T12:17:36.668Z,6692
2016-09-06T12:18:36.663Z,6668
2016-09-06T12:19:36.689Z,6516
2016-09-06T12:20:36.672Z,6708
2016-09-06T12:21:36.670Z,6904
2016-09-06T12:22:36.669Z,6904
2016-09-06T12:23:36.668Z,7064
2016-09-06T12:24:36.695Z,7104
2016-09-06T12:25:36.678Z,7132
2016-09-06T12:26:38.188Z,7040
2016-09-06T12:27:39.399Z,7008
2016-09-06T12:28:37.221Z,6952
2016-09-06T12:29:38.147Z,6808
2016-09-06T12:30:37.770Z,6612
2016-09-06T12:31:36.679Z,6448
2016-09-06T12:32:36.662Z,6324
2016-09-06T12:33:36.679Z,6292
2016-09-06T12:34:36.661Z,6280
2016-09-06T12:35:39.931Z,6212
2016-09-06T12:36:39.232Z,6156
2016-09-06T12:37:37.285Z,6144
2016-09-06T12:38:38.405Z,6132
2016-09-06T12:39:38.221Z,6124
2016-09-06T12:40:37.146Z,6112
2016-09-06T12:41:36.670Z,6096
2016-09-06T12:42:36.685Z,6092
2016-09-06T12:43:36.677Z,6088
2016-09-06T12:44:36.687Z,6068
2016-09-06T12:45:36.666Z,6052
2016-09-06T12:46:36.674Z,6028
2016-09-06T12:47:36.680Z,6016
2016-09-06T12:48:36.977Z,6016
2016-09-06T12:49:36.676Z,6020
2016-09-06T12:50:36.761Z,6008
2016-09-06T12:51:36.674Z,6004
2016-09-06T12:52:37.820Z,5996
2016-09-06T12:53:51.595Z,5996
2016-09-06T12:54:36.739Z,6004
2016-09-06T12:55:36.972Z,6016
2016-09-06T12:57:36.664Z,6088
2016-09-06T12:58:36.690Z,6152
2016-09-06T12:59:36.670Z,6136
2016-09-06T13:00:36.687Z,6088
2016-09-06T13:02:36.726Z,6116
2016-09-06T13:03:37.424Z,6124
2016-09-06T13:04:36.672Z,6116
2016-09-06T13:05:37.079Z,6092
2016-09-06T13:06:37.384Z,6028
2016-09-06T13:07:36.687Z,6060
2016-09-06T13:08:36.676Z,6032
2016-09-06T13:09:36.677Z,5988
2016-09-06T13:10:36.670Z,5996
2016-09-06T13:11:36.684Z,5996
2016-09-06T13:12:36.669Z,5940
2016-09-06T13:13:36.670Z,5908
2016-09-06T13:14:36.684Z,5900
2016-09-06T13:15:36.659Z,5888
2016-09-06T13:16:36.690Z,5880
2016-09-06T13:17:36.687Z,5868
2016-09-06T13:18:36.689Z,5852
2016-09-06T13:19:36.667Z,5840
2016-09-06T13:20:36.674Z,5840
2016-09-06T13:21:36.685Z,5824
2016-09-06T13:22:36.680Z,5824
2016-09-06T13:23:36.698Z,5812
2016-09-06T13:24:36.681Z,5808
2016-09-06T13:25:36.679Z,5800
2016-09-06T13:26:36.667Z,5796
2016-09-06T13:27:36.685Z,5784
2016-09-06T13:28:36.677Z,5784
2016-09-06T13:29:36.990Z,5784
2016-09-06T13:30:36.692Z,5788
2016-09-06T13:31:36.705Z,5788
2016-09-06T13:32:36.684Z,5784
2016-09-06T13:33:36.680Z,5772
2016-09-06T13:34:36.670Z,5768
2016-09-06T13:35:36.683Z,5760
2016-09-06T13:36:36.688Z,5768
2016-09-06T13:37:36.677Z,5788
2016-09-06T13:38:36.676Z,5800
2016-09-06T13:39:36.692Z,5784
2016-09-06T13:40:36.671Z,5748
2016-09-06T13:41:36.685Z,5736
2016-09-06T13:42:36.664Z,5724
2016-09-06T13:43:36.682Z,5716
2016-09-06T13:44:37.250Z,5720
2016-09-06T13:45:37.054Z,5728